X  CloseMetar Aviation Weather Data     FYOA Ondangwa Airport

Temperature

24°C Temperature

13°C Dewpoint

50% Humidity



Wind

 5 KM/H

 3 MPH

 1 M/S

 3 KTS



100°
Due East
Current Conditions

Data Offline Data Offline
Pressure 1013.92 (hPa) - 29.94 (in)
Visibility 0 (mi) - 0 (km)
Airport
Airport-code FYOA

Location Ondangwa Airport 595 (km)

Metar:
FYOA 032200Z AUTO 10003KT //// // ////// 24/13 Q1014

Time: 04-03-2021 00:00